Tiona, PA (16352)

8:31 PM EST on March 01, 2015 (GMT -0500)
Brokenstraw Airport | Change Station
CLOSE
Current Station
Personal Weather Station
Location: Pittsfield, PA
Elevation: 1235 ft
Nearby Weather Stations

Elev 1235 ft 41.83 °N, 79.36 °W | Updated 10 seconds ago

Overcast
Overcast
27.8 °F
Feels Like 28 °F
N
0.0
Wind Variable Wind from WSW
Gusts 0.0 mph

Today
High -- | Low -- °F
--% Chance of Precip.
Yesterday
High -- | Low -- °F
Precip. -- in
6:51 AM 6:06 PM
Waxing Gibbous, 88% visible
Pressure 30.11 in
Visibility 6.0 miles
Clouds Mostly Cloudy 600 ft
Overcast 1700 ft
Windchill 28 °F
Dew Point 27 °F
Humidity 96%
Rainfall 0.13 in
Snow Depth Not available.
UV 0 out of 12
Pollen .40 out of 12
Air Quality Not available.
Flu Activity Not available.
METAR KJHW 020115Z 01003KT 6SM BKN006 OVC017 M05/M07 A3011 RMK AO1

More Conditions Fewer Conditions

Pressure 30.11 in
Visibility 6.0 miles
Clouds Mostly Cloudy 600 ft
Overcast 1700 ft
Windchill 28 °F
Dew Point 27 °F
Humidity 96%
Rainfall 0.13 in
Snow Depth Not available.
UV 0 out of 12
Pollen .40 out of 12
Air Quality Not available.
Flu Activity Not available.
METAR KJHW 020115Z 01003KT 6SM BKN006 OVC017 M05/M07 A3011 RMK AO1

More Conditions Fewer Conditions

10-Day Weather Forecast

Almanac

Astronomy

Mar. 01, 2015 Rise Set
Actual Time
Civil Twilight
Nautical Twilight
Astronomical Twilight
Moon
Length of Visible Light
Length of Day
Tomorrow will be .
, % of the Moon is Illuminated

Today's Extremes

State Highs State Lows

Community

WunderPhotos

Upload Photos

1,801,680 photos uploaded!

WunderBlogs® & News

Nearby

Air Quality

  Air Quality AQ Index Pollutant
Not available.

Snow Depth

Station Depth Elevation

Earthquake Activity

City Distance Mag. Time & Date
Minimum magnitude displayed is 2.5.

Coastal Water Temperatures

Place Temperature

Nearby Weather Stations

Winter Weather Advisory
Statement as of 7:57 PM EST on March 01, 2015

... Winter Weather Advisory remains in effect until 7 am EST
Monday...

* locations... the northwest mountains.

* Hazard types... snow.

* Additional accumulations... 1 to 2 inches.

* Timing... snow will taper off to flurries through the night... but
could linger through sunrise.

* Impacts... hazardous travel from snow covered roads and poor
visibility at times.

Precautionary/preparedness actions...

Hazardous winter weather conditions are expected or occurring.
Use caution if traveling. For the latest weather information... go
to weather.Gov/statecollege or monitor NOAA Weather Radio.

Report snow or ice accumulation to the National Weather Service
State College by sending an email to ctp.Stormreports@noaa.Gov...
posting to the NWS State College facebook Page... or tweet
@nwsstatecollege with the hashtag c... T... p... W... x.